Lihue, HI (96766)

4:47 PM HST on January 20, 2018 (GMT -1000)
Ulu Mahi | | Change Station
Active Advisory: High Surf Advisory Active Notice: High Surf Advisory

Elev 200 ft 21.97 °N, 159.37 °W | Updated 45 seconds ago

Mostly Cloudy
Mostly Cloudy
74.1 °F
Feels Like 73 °F
N
9.4
Wind Variable Wind from NE

Today
High -- | Low -- °F
--% Chance of Precip.
Yesterday
High -- | Low -- °F
Precip. -- in
Pressure 30.00 in
Visibility 10.0 miles
Clouds Scattered Clouds 1100 ft
Scattered Clouds 2500 ft
Mostly Cloudy 3400 ft
Heat Index 73 °F
Dew Point 70 °F
Humidity 86%
Rainfall 0.11 in
Snow Depth Not available.
7:18 AM 6:18 PM
Waxing Crescent, 14% visible
METAR PHLI 210153Z 08015KT 10SM SCT011 SCT025 BKN034 24/22 A3000 RMK AO2 SLP157 T02440217
Pressure 30.00 in
Visibility 10.0 miles
Clouds Scattered Clouds 1100 ft
Scattered Clouds 2500 ft
Mostly Cloudy 3400 ft
Heat Index 73 °F
Dew Point 70 °F
Humidity 86%
Rainfall 0.11 in
Snow Depth Not available.
7:18 AM 6:18 PM
Waxing Crescent, 14% visible
METAR PHLI 210153Z 08015KT 10SM SCT011 SCT025 BKN034 24/22 A3000 RMK AO2 SLP157 T02440217

Get Your Daily Forecast Email!

Thanks for signing up!

Be on the lookout for a verification email in your inbox.

You'll start receiving severe weather alerts in your inbox..

×

10-Day Weather Forecast

Almanac

Astronomy

Jan. 20, 2018 Rise Set
Actual Time
Civil Twilight
Nautical Twilight
Astronomical Twilight
Moon
Length of Visible Light
Length of Day
Tomorrow will be .
, % of the Moon is Illuminated

Today's Extremes

State Highs State Lows

Community

WunderPhotos

Category 6

Welcome to Category 6. This is the collective home for Weather Underground's featured writeups by Dr. Jeff Masters (right), Bob Henson (left), Chris Burt, and other regular contributors.

Nearby

Air Quality

  Air Quality AQ Index Pollutant
Not available.

Snow Depth

Station Depth Elevation

Earthquake Activity

City Distance Mag. Time & Date
Minimum magnitude displayed is 2.5.

Coastal Water Temperatures

Place Temperature

Stations

Nearby Weather Stations

Station Location Temp. Windchill Dew Point Humidity Wind Precip. Elev Updated Type
                   

Watches & Warnings

High Surf Advisory
Issued: 3:33 PM HST Jan. 20, 2018 – National Weather Service

... High surf advisory remains in effect until 6 PM HST Sunday...

* surf... along east facing shores, 7 to 10 feet.

* Timing... through Sunday.

* Impacts... moderate... expect strong breaking waves, shore
break, and strong longshore and rip currents making swimming
difficult and dangerous.

Precautionary/preparedness actions...

Always heed advice given by ocean safety officials and know your
limits. When in doubt, do not go out.